Time;durP1;ratioP1;P1;durP2;ratioP2;P2;SDS_P1;SDS_P2;PMS_P1;PMS_P2;Temp;Humidity;BMP_temperature;BMP_pressure;BME280_temperature;BME280_humidity;BME280_pressure;Samples;Min_cycle;Max_cycle;Signal;HPM_P1;HPM_P2
2022/06/30 03:47:41;;;;;;;;;;;;;;;23.44;60.15;96438.00;4226530;27;10255;-77
2022/06/30 03:49:44;;;;;;;;;;;;;;;23.70;60.16;96440.47;4220358;28;5764;-78
2022/06/30 03:51:46;;;;;;;;;;;;;;;23.90;59.44;96434.03;4226443;28;5700;-77
2022/06/30 03:53:49;;;;;;;;;;;;;;;24.06;59.19;96446.28;4223870;28;5836;-77
2022/06/30 03:55:52;;;;;;;;;;;;;;;24.17;58.93;96444.28;4223876;28;5795;-78
2022/06/30 03:57:56;;;;;;;;;;;;;;;24.25;58.46;96447.16;4224947;28;7112;-78
2022/06/30 03:59:59;;;;;;;;;;;;;;;24.34;58.44;96450.03;4231049;28;5832;-78
2022/06/30 04:02:03;;;;;;;;;;;;;;;24.39;58.22;96447.28;4228659;28;5672;-78
2022/06/30 04:04:07;;;;;;;;;;;;;;;24.44;57.92;96446.41;4228967;28;5750;-79
2022/06/30 04:06:10;;;;;;;;;;;;;;;24.49;58.05;96441.75;4230505;28;5803;-78
2022/06/30 04:08:13;;;;;;;;;;;;;;;24.55;57.50;96442.47;4231617;27;5660;-78
2022/06/30 04:10:18;;;;;;;;;;;;;;;24.59;57.27;96440.81;4220923;28;6365;-78
2022/06/30 04:12:41;;;;;;;;;;;;;;;24.60;57.44;96437.81;4219528;28;5818;-78
2022/06/30 04:14:44;;;;;;;;;;;;;;;24.64;57.47;96444.25;4220457;28;5089;-78
2022/06/30 04:16:47;;;;;;;;;;;;;;;24.68;57.69;96441.75;4230798;28;5824;-78
2022/06/30 04:18:50;;;;;;;;;;;;;;;24.69;57.31;96451.50;4229559;28;5787;-78
2022/06/30 04:20:54;;;;;;;;;;;;;;;24.71;57.16;96443.88;4216717;28;6491;-79
2022/06/30 04:22:57;;;;;;;;;;;;;;;24.71;56.88;96443.09;4214745;28;5697;-79
2022/06/30 04:25:00;;;;;;;;;;;;;;;24.71;56.75;96438.47;4214753;28;6482;-79
2022/06/30 04:27:03;;;;;;;;;;;;;;;24.71;56.74;96438.47;4215041;28;5686;-79
2022/06/30 04:29:08;;;;;;;;;;;;;;;24.71;57.08;96441.19;4214830;28;5831;-79
2022/06/30 04:33:32;;;;;;;;;;;;;;;24.72;56.67;96445.50;4214070;28;5677;-80
2022/06/30 04:35:35;;;;;;;;;;;;;;;24.74;56.85;96434.38;4214673;28;5803;-79
2022/06/30 04:37:40;;;;;;;;;;;;;;;24.76;56.71;96432.19;4224332;28;5766;-78
2022/06/30 04:39:43;;;;;;;;;;;;;;;24.77;56.64;96439.19;4227602;28;5676;-78
2022/06/30 04:41:44;;;;;;;;;;;;;;;24.78;56.50;96433.50;4226380;28;5748;-80
2022/06/30 04:43:47;;;;;;;;;;;;;;;24.79;56.55;96440.50;4217863;28;5693;-79
2022/06/30 04:45:50;;;;;;;;;;;;;;;24.80;56.42;96438.59;4214220;28;6362;-79
2022/06/30 04:47:53;;;;;;;;;;;;;;;24.80;56.21;96447.53;4210777;28;5846;-79
2022/06/30 04:49:56;;;;;;;;;;;;;;;24.81;56.45;96438.34;4209072;28;5949;-78
2022/06/30 04:51:59;;;;;;;;;;;;;;;24.83;56.23;96435.34;4219671;28;5668;-78
2022/06/30 04:54:03;;;;;;;;;;;;;;;24.87;55.88;96437.16;4213914;28;5676;-78
2022/06/30 04:56:06;;;;;;;;;;;;;;;24.91;56.02;96438.16;4211976;28;5975;-78
2022/06/30 04:58:09;;;;;;;;;;;;;;;24.89;55.80;96445.78;4213375;28;5751;-78
2022/06/30 05:00:13;;;;;;;;;;;;;;;24.87;55.86;96442.56;4219311;28;5688;-80
2022/06/30 05:02:16;;;;;;;;;;;;;;;24.87;55.90;96444.47;4219423;28;6361;-79
2022/06/30 05:04:19;;;;;;;;;;;;;;;24.86;56.00;96449.06;4209915;28;5851;-80
2022/06/30 05:06:22;;;;;;;;;;;;;;;24.87;55.98;96452.56;4212058;28;5676;-80
2022/06/30 05:08:26;;;;;;;;;;;;;;;24.87;55.82;96450.69;4215419;28;5676;-79
2022/06/30 05:10:31;;;;;;;;;;;;;;;24.87;56.32;96447.97;4214246;28;5708;-79
2022/06/30 05:12:34;;;;;;;;;;;;;;;24.91;55.61;96448.19;4216202;28;5766;-80
2022/06/30 05:14:37;;;;;;;;;;;;;;;24.97;55.76;96452.44;4218045;28;5684;-80
2022/06/30 05:16:39;;;;;;;;;;;;;;;25.01;56.02;96449.94;4205782;28;5843;-80
2022/06/30 05:18:42;;;;;;;;;;;;;;;25.04;55.56;96454.81;4216417;28;5684;-80
2022/06/30 05:20:46;;;;;;;;;;;;;;;25.04;55.93;96457.50;4219490;28;5657;-80
2022/06/30 05:22:49;;;;;;;;;;;;;;;25.07;56.02;96455.00;4215311;28;5751;-80
2022/06/30 05:27:16;;;;;;;;;;;;;;;25.14;55.48;96449.22;4217181;28;5093;-80
2022/06/30 05:29:19;;;;;;;;;;;;;;;25.17;55.70;96457.56;4215402;28;5701;-80
2022/06/30 05:31:22;;;;;;;;;;;;;;;25.22;55.39;96464.78;4216633;28;5822;-78
2022/06/30 05:33:25;;;;;;;;;;;;;;;25.28;55.77;96469.03;4217843;28;5680;-80
2022/06/30 05:35:28;;;;;;;;;;;;;;;25.33;55.34;96477.06;4215637;28;5881;-79
2022/06/30 05:37:31;;;;;;;;;;;;;;;25.33;55.41;96477.06;4212761;28;5665;-80
2022/06/30 05:39:34;;;;;;;;;;;;;;;25.37;55.29;96478.09;4218798;28;6354;-80
2022/06/30 05:41:37;;;;;;;;;;;;;;;25.39;55.64;96485.91;4219448;28;5755;-80
2022/06/30 05:43:41;;;;;;;;;;;;;;;25.41;55.30;96489.13;4215064;28;5672;-80
2022/06/30 05:45:46;;;;;;;;;;;;;;;25.39;55.27;96485.91;4218221;28;6353;-78
2022/06/30 05:47:51;;;;;;;;;;;;;;;25.37;55.57;96488.91;4217803;28;5695;-80
2022/06/30 05:49:54;;;;;;;;;;;;;;;25.38;55.43;96495.94;4214607;28;5697;-78
2022/06/30 05:51:57;;;;;;;;;;;;;;;25.41;55.54;96506.16;4201983;28;5787;-77
2022/06/30 05:54:00;;;;;;;;;;;;;;;25.45;55.19;96500.94;4215964;28;5660;-80
2022/06/30 05:56:02;;;;;;;;;;;;;;;25.53;55.44;96508.41;4213052;28;5705;-79
2022/06/30 05:58:05;;;;;;;;;;;;;;;25.61;55.05;96506.94;4208741;28;5687;-79
2022/06/30 06:00:12;;;;;;;;;;;;;;;25.73;55.04;96508.09;4208925;28;5685;-79
2022/06/30 06:02:14;;;;;;;;;;;;;;;25.82;54.99;96513.63;4202293;28;5704;-79
2022/06/30 06:04:17;;;;;;;;;;;;;;;25.87;54.68;96508.13;4208695;28;5680;-79
2022/06/30 06:06:21;;;;;;;;;;;;;;;25.94;54.54;96513.16;4218134;28;5850;-79
2022/06/30 06:08:24;;;;;;;;;;;;;;;25.97;54.66;96512.56;4218461;28;5719;-81
2022/06/30 06:10:27;;;;;;;;;;;;;;;26.03;54.77;96517.56;4218645;28;5669;-79
2022/06/30 06:12:30;;;;;;;;;;;;;;;26.08;54.27;96505.84;4208047;28;5697;-79
2022/06/30 06:14:33;;;;;;;;;;;;;;;26.04;54.49;96511.06;4208620;28;7392;-80
2022/06/30 06:16:37;;;;;;;;;;;;;;;25.98;54.25;96504.13;4201777;28;5780;-79
2022/06/30 06:18:41;;;;;;;;;;;;;;;25.98;54.36;96512.25;4206303;28;5657;-79
2022/06/30 06:20:43;;;;;;;;;;;;;;;26.03;54.04;96511.34;4210167;28;5705;-80
2022/06/30 06:23:06;;;;;;;;;;;;;;;26.06;54.16;96511.59;4217643;28;5872;-80
2022/06/30 06:25:10;;;;;;;;;;;;;;;26.12;54.01;96510.38;4217470;28;5767;-80
2022/06/30 06:27:13;;;;;;;;;;;;;;;26.21;53.96;96507.78;4218243;28;5680;-80
2022/06/30 06:29:15;;;;;;;;;;;;;;;26.30;53.58;96510.59;4211979;28;5792;-80
2022/06/30 06:31:18;;;;;;;;;;;;;;;26.36;53.77;96506.66;4206330;28;5914;-80
2022/06/30 06:33:22;;;;;;;;;;;;;;;26.44;53.51;96505.19;4216078;28;5720;-80
2022/06/30 06:35:25;;;;;;;;;;;;;;;26.49;53.44;96510.50;4214186;28;6440;-68
2022/06/30 06:37:28;;;;;;;;;;;;;;;26.52;53.63;96510.72;4205086;28;5668;-68
2022/06/30 06:39:32;;;;;;;;;;;;;;;26.58;53.10;96512.22;4214318;28;5132;-79
2022/06/30 06:41:35;;;;;;;;;;;;;;;26.66;53.45;96516.13;4218231;28;5677;-75
2022/06/30 06:43:38;;;;;;;;;;;;;;;26.70;53.30;96515.22;4216774;28;5691;-80
2022/06/30 06:45:41;;;;;;;;;;;;;;;26.73;53.09;96508.41;4213967;28;5693;-75
2022/06/30 06:47:44;;;;;;;;;;;;;;;26.72;53.37;96514.09;4207307;28;5680;-74
2022/06/30 06:49:48;;;;;;;;;;;;;;;26.70;53.09;96504.38;4216640;28;5668;-74
2022/06/30 06:51:52;;;;;;;;;;;;;;;26.70;53.25;96504.38;4207577;28;5834;-85
2022/06/30 06:53:55;;;;;;;;;;;;;;;26.70;53.22;96507.09;4209312;28;6361;-82
2022/06/30 06:55:58;;;;;;;;;;;;;;;26.71;53.43;96510.59;4202671;28;5704;-81
2022/06/30 06:58:01;;;;;;;;;;;;;;;26.72;53.23;96511.41;4225536;27;5695;-81
2022/06/30 07:00:09;;;;;;;;;;;;;;;26.72;53.15;96514.09;4219137;28;5664;-81
2022/06/30 07:02:12;;;;;;;;;;;;;;;26.74;53.22;96511.91;4212223;28;5879;-83
2022/06/30 07:04:15;;;;;;;;;;;;;;;26.74;53.11;96514.63;4218010;28;5677;-81
2022/06/30 07:06:20;;;;;;;;;;;;;;;26.72;52.86;96517.63;4218051;28;5672;-82
2022/06/30 07:08:22;;;;;;;;;;;;;;;26.70;53.30;96520.63;4217324;28;5763;-82
2022/06/30 07:10:27;;;;;;;;;;;;;;;26.65;52.97;96518.03;4215416;28;5194;-81
2022/06/30 07:12:30;;;;;;;;;;;;;;;26.61;53.30;96519.75;4215893;28;5664;-77
2022/06/30 07:14:33;;;;;;;;;;;;;;;26.57;53.04;96516.03;4218285;28;5759;-78
2022/06/30 07:16:36;;;;;;;;;;;;;;;26.54;53.25;96510.44;4218723;28;5704;-77
2022/06/30 07:18:39;;;;;;;;;;;;;;;26.49;53.08;96510.50;4215615;28;5680;-71
2022/06/30 07:20:42;;;;;;;;;;;;;;;26.45;52.96;96510.31;4217491;28;5793;-75
2022/06/30 07:22:48;;;;;;;;;;;;;;;26.42;53.29;96508.22;4214895;28;6197;-75
2022/06/30 07:25:10;;;;;;;;;;;;;;;26.40;52.89;96511.22;4215296;28;5676;-75
2022/06/30 07:27:13;;;;;;;;;;;;;;;26.40;53.08;96507.72;4214222;28;5934;-76
2022/06/30 07:29:16;;;;;;;;;;;;;;;26.38;52.95;96512.63;4200827;28;5697;-75
2022/06/30 07:31:20;;;;;;;;;;;;;;;26.34;53.00;96517.81;4213584;28;5676;-79
2022/06/30 07:33:24;;;;;;;;;;;;;;;26.34;52.86;96503.47;4218418;28;5820;-81
2022/06/30 07:35:27;;;;;;;;;;;;;;;26.33;52.85;96501.84;4218683;28;5730;-73
2022/06/30 07:37:30;;;;;;;;;;;;;;;26.32;53.08;96508.38;4208908;28;5694;-73
2022/06/30 07:39:34;;;;;;;;;;;;;;;26.30;52.75;96497.84;4203705;28;5681;-73
2022/06/30 07:41:37;;;;;;;;;;;;;;;26.29;52.70;96490.03;4216460;28;5672;-73
2022/06/30 07:43:40;;;;;;;;;;;;;;;26.26;52.73;96493.31;4208760;28;5780;-73
2022/06/30 07:45:43;;;;;;;;;;;;;;;26.25;52.91;96480.88;4208039;28;5672;-72
2022/06/30 07:47:46;;;;;;;;;;;;;;;26.23;52.76;96483.09;4206298;28;5691;-71
2022/06/30 07:49:52;;;;;;;;;;;;;;;26.22;52.46;96486.91;4219021;28;5694;-72
2022/06/30 07:51:55;;;;;;;;;;;;;;;26.18;52.80;96477.78;4211899;28;5652;-72
2022/06/30 07:53:58;;;;;;;;;;;;;;;26.18;52.80;96475.06;4215078;28;5852;-72
2022/06/30 07:56:02;;;;;;;;;;;;;;;26.19;52.51;96476.69;4203073;28;5708;-73
2022/06/30 07:58:06;;;;;;;;;;;;;;;26.15;52.72;96472.94;4211064;28;6407;-87
2022/06/30 08:00:12;;;;;;;;;;;;;;;26.13;52.55;96470.53;4219301;28;5662;-68
2022/06/30 08:02:15;;;;;;;;;;;;;;;26.12;52.73;96463.50;4217744;28;5726;-80
2022/06/30 08:04:20;;;;;;;;;;;;;;;26.10;52.68;96471.16;4214837;28;5680;-75
2022/06/30 08:06:24;;;;;;;;;;;;;;;26.07;52.52;96477.97;4216670;28;5660;-75
2022/06/30 08:08:27;;;;;;;;;;;;;;;26.10;52.73;96481.97;4216701;28;6326;-75
2022/06/30 08:10:33;;;;;;;;;;;;;;;26.11;52.28;96489.00;4217586;28;5683;-78
2022/06/30 08:12:37;;;;;;;;;;;;;;;26.09;52.66;96494.72;4216535;28;6353;-78
2022/06/30 08:14:40;;;;;;;;;;;;;;;26.03;52.25;96487.78;4217357;28;5780;-78
2022/06/30 08:16:43;;;;;;;;;;;;;;;26.02;52.73;96483.47;4208056;28;5697;-75
2022/06/30 08:18:47;;;;;;;;;;;;;;;25.99;52.34;96484.06;4212387;28;5668;-74
2022/06/30 08:20:50;;;;;;;;;;;;;;;25.96;52.58;96484.69;4214998;28;5702;-74
2022/06/30 08:22:53;;;;;;;;;;;;;;;25.99;52.74;96478.66;4211592;28;5761;-75
2022/06/30 08:24:57;;;;;;;;;;;;;;;25.99;52.37;96478.66;4215137;28;5719;-75
2022/06/30 08:27:02;;;;;;;;;;;;;;;26.00;52.51;96482.97;4219908;28;6354;-84
2022/06/30 08:29:08;;;;;;;;;;;;;;;26.04;52.47;96480.47;4221669;28;5771;-85
2022/06/30 08:31:11;;;;;;;;;;;;;;;26.04;52.57;96475.03;4219052;28;5849;-73
2022/06/30 08:33:14;;;;;;;;;;;;;;;26.05;52.71;96477.47;4217776;28;5876;-76
2022/06/30 08:35:17;;;;;;;;;;;;;;;26.07;52.46;96475.25;4218774;28;5700;-77
2022/06/30 08:37:38;;;;;;;;;;;;;;;26.09;52.54;96467.63;4217430;28;5842;-69
2022/06/30 08:42:07;;;;;;;;;;;;;;;26.12;52.53;96472.44;4219363;28;5770;-70
2022/06/30 08:44:13;;;;;;;;;;;;;;;26.13;52.55;96465.91;4223097;27;5663;-71
2022/06/30 08:46:16;;;;;;;;;;;;;;;26.16;52.68;96472.63;4215339;28;5758;-71
2022/06/30 08:48:19;;;;;;;;;;;;;;;26.15;52.24;96460.19;4219547;28;7487;-70
2022/06/30 08:50:22;;;;;;;;;;;;;;;26.14;52.41;96464.00;4212201;28;5732;-70
2022/06/30 08:52:29;;;;;;;;;;;;;;;26.16;52.12;96458.28;4218362;28;6481;-71
2022/06/30 08:54:38;;;;;;;;;;;;;;;26.17;52.15;96457.22;4214959;28;5769;-86
2022/06/30 08:56:44;;;;;;;;;;;;;;;26.14;52.04;96447.75;4205301;28;5753;-83
2022/06/30 08:58:50;;;;;;;;;;;;;;;26.18;52.42;96447.97;4222020;28;5800;-90
2022/06/30 09:00:54;;;;;;;;;;;;;;;26.21;51.85;96445.47;4206470;28;5717;-88
2022/06/30 09:02:58;;;;;;;;;;;;;;;26.21;52.13;96447.38;4220898;28;5679;-88
2022/06/30 09:05:02;;;;;;;;;;;;;;;26.22;51.79;96454.38;4219970;28;5813;-85
2022/06/30 09:07:05;;;;;;;;;;;;;;;26.18;51.80;96442.56;4218102;28;5746;-82
2022/06/30 09:09:09;;;;;;;;;;;;;;;26.15;51.54;96443.13;4220204;28;5652;-85
2022/06/30 09:11:12;;;;;;;;;;;;;;;26.16;51.68;96444.75;4219839;28;5791;-83
2022/06/30 09:13:16;;;;;;;;;;;;;;;26.23;51.63;96443.25;4205038;28;5712;-81
2022/06/30 09:15:19;;;;;;;;;;;;;;;26.31;51.49;96449.88;4203196;28;5656;-78
2022/06/30 09:17:26;;;;;;;;;;;;;;;26.32;51.64;96454.19;4215086;28;5712;-79
2022/06/30 09:19:30;;;;;;;;;;;;;;;26.33;51.61;96453.09;4210296;28;6345;-73
2022/06/30 09:21:33;;;;;;;;;;;;;;;26.33;51.36;96450.38;4215984;28;6490;-75
2022/06/30 09:23:36;;;;;;;;;;;;;;;26.33;51.32;96444.94;4216625;28;5770;-75
2022/06/30 09:25:41;;;;;;;;;;;;;;;26.32;51.33;96448.78;4218882;28;5680;-74
2022/06/30 09:27:47;;;;;;;;;;;;;;;26.29;51.56;96446.66;4219175;28;5765;-77
2022/06/30 09:29:55;;;;;;;;;;;;;;;26.27;51.22;96440.72;4212504;28;5672;-76
2022/06/30 09:32:18;;;;;;;;;;;;;;;26.27;51.31;96436.09;4210214;28;5744;-75
2022/06/30 09:34:23;;;;;;;;;;;;;;;26.24;50.98;96430.50;4202239;28;5759;-79
2022/06/30 09:36:29;;;;;;;;;;;;;;;26.27;51.33;96419.06;4217355;28;5830;-85
2022/06/30 09:38:33;;;;;;;;;;;;;;;26.28;50.97;96420.69;4216137;28;5993;-80
2022/06/30 09:40:38;;;;;;;;;;;;;;;26.30;50.85;96426.59;4216605;28;5676;-73
2022/06/30 09:42:43;;;;;;;;;;;;;;;26.34;50.80;96424.88;4218185;28;5779;-73
2022/06/30 09:44:57;;;;;;;;;;;;;;;26.36;50.73;96430.78;4218624;28;5638;-77
2022/06/30 09:47:02;;;;;;;;;;;;;;;26.36;50.86;96428.91;4219253;28;5089;-79
2022/06/30 09:49:05;;;;;;;;;;;;;;;26.36;50.60;96428.91;4208633;28;5798;-74
2022/06/30 09:51:10;;;;;;;;;;;;;;;26.39;50.89;96433.75;4217802;28;5680;-74
2022/06/30 09:53:15;;;;;;;;;;;;;;;26.42;50.85;96431.53;4217673;28;5744;-74
2022/06/30 09:55:18;;;;;;;;;;;;;;;26.43;50.66;96425.00;4218479;28;5676;-74
2022/06/30 09:57:23;;;;;;;;;;;;;;;26.47;50.43;96426.78;4214258;28;5676;-84
2022/06/30 09:59:26;;;;;;;;;;;;;;;26.49;50.33;96432.72;4217010;28;7766;-79
2022/06/30 10:01:49;;;;;;;;;;;;;;;26.54;50.53;96429.91;4218105;28;5759;-79
2022/06/30 10:03:59;;;;;;;;;;;;;;;26.56;50.20;96430.41;4227365;28;5673;-81
2022/06/30 10:06:10;;;;;;;;;;;;;;;26.56;50.33;96424.97;4209701;28;5778;-81
2022/06/30 10:08:14;;;;;;;;;;;;;;;26.56;50.36;96430.41;4216287;28;5807;-83
2022/06/30 10:10:18;;;;;;;;;;;;;;;26.56;50.48;96424.97;4219559;28;5684;-81
2022/06/30 10:12:23;;;;;;;;;;;;;;;26.57;50.42;96417.66;4217736;28;5655;-86
2022/06/30 10:14:31;;;;;;;;;;;;;;;26.60;50.20;96409.69;4218576;28;5689;-78
2022/06/30 10:16:36;;;;;;;;;;;;;;;26.62;50.33;96418.34;4217430;28;5889;-81
2022/06/30 10:18:41;;;;;;;;;;;;;;;26.63;50.21;96416.44;4215056;28;5697;-88
2022/06/30 10:20:46;;;;;;;;;;;;;;;26.65;50.09;96423.16;4208806;28;5723;-82
2022/06/30 10:22:51;;;;;;;;;;;;;;;26.67;50.12;96420.94;4218339;28;5918;-87
2022/06/30 10:24:58;;;;;;;;;;;;;;;26.67;50.15;96415.50;4218666;28;5825;-80
2022/06/30 10:27:14;;;;;;;;;;;;;;;26.68;50.17;96422.53;4221011;28;6367;-80
2022/06/30 10:29:18;;;;;;;;;;;;;;;26.72;50.14;96424.63;4223899;28;5711;-81
2022/06/30 10:31:25;;;;;;;;;;;;;;;26.73;49.88;96418.09;4211761;28;5758;-78
2022/06/30 10:33:38;;;;;;;;;;;;;;;26.76;50.12;96417.50;4200997;28;5712;-67
2022/06/30 10:35:46;;;;;;;;;;;;;;;26.80;49.99;96421.19;4201763;28;5701;-73
2022/06/30 10:37:59;;;;;;;;;;;;;;;26.84;49.75;96422.19;4209816;28;5693;-74
2022/06/30 10:40:09;;;;;;;;;;;;;;;26.88;49.84;96415.06;4215745;28;5668;-74
2022/06/30 10:42:43;;;;;;;;;;;;;;;26.94;49.62;96408.38;4218196;28;5680;-73
2022/06/30 10:44:46;;;;;;;;;;;;;;;26.97;49.67;96410.50;4226475;28;5739;-74
2022/06/30 10:47:10;;;;;;;;;;;;;;;27.02;49.64;96406.91;4207202;28;5753;-74
2022/06/30 10:49:13;;;;;;;;;;;;;;;27.03;49.45;96408.50;4217026;28;5739;-73
2022/06/30 10:51:17;;;;;;;;;;;;;;;27.04;49.50;96405.47;4217599;28;5660;-74
2022/06/30 10:53:51;;;;;;;;;;;;;;;27.07;49.44;96404.03;4224732;28;5669;-74
2022/06/30 10:55:56;;;;;;;;;;;;;;;27.11;49.49;96396.91;4218224;28;5720;-74
2022/06/30 10:58:07;;;;;;;;;;;;;;;27.12;49.53;96393.88;4202681;28;6411;-74
2022/06/30 11:00:45;;;;;;;;;;;;;;;27.14;49.38;96394.38;4232239;28;5636;-74
2022/06/30 11:02:48;;;;;;;;;;;;;;;27.13;49.24;96400.13;4199693;28;5929;-73
2022/06/30 11:05:12;;;;;;;;;;;;;;;27.12;49.37;96393.88;4213975;28;5665;-78
2022/06/30 11:07:19;;;;;;;;;;;;;;;27.14;49.36;96394.38;4216259;28;5695;-78
2022/06/30 11:09:58;;;;;;;;;;;;;;;27.12;49.33;96382.22;4211339;28;5687;-80
2022/06/30 11:12:02;;;;;;;;;;;;;;;27.12;49.21;96385.75;4211535;28;5101;-73
2022/06/30 11:14:24;;;;;;;;;;;;;;;27.15;49.21;96378.91;4217448;28;5728;-73
2022/06/30 11:16:27;;;;;;;;;;;;;;;27.16;49.10;96378.59;4219751;28;5849;-72
2022/06/30 11:18:35;;;;;;;;;;;;;;;27.15;49.03;96379.69;4214522;28;5683;-76
2022/06/30 11:20:43;;;;;;;;;;;;;;;27.14;49.09;96375.38;4206982;28;5741;-72
2022/06/30 11:22:47;;;;;;;;;;;;;;;27.16;48.78;96381.28;4212006;28;5668;-71
2022/06/30 11:24:50;;;;;;;;;;;;;;;27.17;48.82;96372.03;4209302;28;5697;-73
2022/06/30 11:29:19;;;;;;;;;;;;;;;27.19;48.71;96361.72;4216949;28;6428;-72
2022/06/30 11:31:33;;;;;;;;;;;;;;;27.20;48.54;96368.72;4214814;28;6342;-71
2022/06/30 11:33:51;;;;;;;;;;;;;;;27.22;48.62;96369.22;4213694;28;5735;-70
2022/06/30 11:36:06;;;;;;;;;;;;;;;27.24;48.42;96360.75;4211895;28;5672;-70
2022/06/30 11:38:09;;;;;;;;;;;;;;;27.26;48.25;96361.25;4208195;28;5768;-70
2022/06/30 11:40:15;;;;;;;;;;;;;;;27.26;48.21;96363.97;4209195;28;6575;-71
2022/06/30 11:42:18;;;;;;;;;;;;;;;27.28;48.26;96367.16;4205947;28;5709;-71
2022/06/30 11:44:23;;;;;;;;;;;;;;;27.30;48.14;96361.44;4201100;28;6398;-71
2022/06/30 11:46:27;;;;;;;;;;;;;;;27.31;47.90;96360.34;4205484;28;5684;-71
2022/06/30 11:48:30;;;;;;;;;;;;;;;27.33;47.79;96363.53;4216107;28;6029;-71
2022/06/30 11:50:33;;;;;;;;;;;;;;;27.35;48.06;96358.59;4212202;28;5812;-71
2022/06/30 11:52:41;;;;;;;;;;;;;;;27.37;47.70;96359.06;4206988;28;5751;-70
2022/06/30 11:54:49;;;;;;;;;;;;;;;27.39;47.76;96356.84;4216745;28;5874;-70
2022/06/30 11:56:54;;;;;;;;;;;;;;;27.43;47.53;96358.66;4200703;28;5709;-70
2022/06/30 11:59:06;;;;;;;;;;;;;;;27.45;47.54;96361.84;4214213;28;5109;-70
2022/06/30 12:01:16;;;;;;;;;;;;;;;27.49;47.59;96357.38;4228009;27;5708;-68
2022/06/30 12:03:19;;;;;;;;;;;;;;;27.56;47.33;96362.38;4219744;28;7161;-67
2022/06/30 12:05:27;;;;;;;;;;;;;;;27.60;47.21;96357.91;4218686;28;5763;-67
2022/06/30 12:07:31;;;;;;;;;;;;;;;27.64;47.03;96353.47;4219895;28;5697;-67
2022/06/30 12:09:35;;;;;;;;;;;;;;;27.67;47.07;96352.88;4220043;28;5763;-67
2022/06/30 12:11:53;;;;;;;;;;;;;;;27.69;46.82;96347.94;4212323;28;5764;-74
2022/06/30 12:14:01;;;;;;;;;;;;;;;27.70;46.97;96352.25;4219037;28;5710;-86
2022/06/30 12:16:05;;;;;;;;;;;;;;;27.74;46.83;96358.63;4219164;28;5774;-75
2022/06/30 12:18:09;;;;;;;;;;;;;;;27.77;46.73;96352.59;4220603;28;5680;-76
2022/06/30 12:20:16;;;;;;;;;;;;;;;27.80;46.82;96354.69;4219749;28;5693;-77
2022/06/30 12:22:20;;;;;;;;;;;;;;;27.80;46.50;96351.16;4221009;28;5676;-80
2022/06/30 12:24:24;;;;;;;;;;;;;;;27.81;46.61;96350.03;4220664;28;5786;-77
2022/06/30 12:26:27;;;;;;;;;;;;;;;27.81;46.59;96350.84;4221388;28;5695;-75
2022/06/30 12:28:44;;;;;;;;;;;;;;;27.82;46.42;96351.66;4219663;28;6515;-76
2022/06/30 12:30:51;;;;;;;;;;;;;;;27.81;46.37;96355.47;4220897;28;5664;-72
2022/06/30 12:32:55;;;;;;;;;;;;;;;27.82;46.31;96343.50;4211151;28;5788;-72
2022/06/30 12:35:01;;;;;;;;;;;;;;;27.82;46.24;96347.00;4218278;28;5684;-71
2022/06/30 12:37:05;;;;;;;;;;;;;;;27.85;46.22;96346.38;4217406;28;5766;-73
2022/06/30 12:39:27;;;;;;;;;;;;;;;27.85;46.01;96351.81;4183969;28;5893;-72
2022/06/30 12:41:31;;;;;;;;;;;;;;;27.87;46.04;96350.72;4214927;28;6178;-72
2022/06/30 12:43:44;;;;;;;;;;;;;;;27.83;45.73;96335.03;4219330;28;5680;-72
2022/06/30 12:45:51;;;;;;;;;;;;;;;27.84;45.80;96344.78;4219564;28;5731;-72
2022/06/30 12:47:54;;;;;;;;;;;;;;;27.84;45.73;96330.41;4217824;28;5680;-72
2022/06/30 12:49:57;;;;;;;;;;;;;;;27.85;45.30;96337.44;4213317;28;5765;-72
2022/06/30 12:52:13;;;;;;;;;;;;;;;27.84;45.42;96330.41;4204603;28;5776;-72
2022/06/30 12:54:23;;;;;;;;;;;;;;;27.83;45.27;96328.78;4219832;28;5930;-72
2022/06/30 12:56:28;;;;;;;;;;;;;;;27.82;45.20;96329.91;4217312;28;5815;-68
2022/06/30 12:58:47;;;;;;;;;;;;;;;27.80;45.40;96327.53;4214157;28;5695;-69
2022/06/30 13:00:50;;;;;;;;;;;;;;;27.77;45.24;96322.72;4210596;28;5787;-68
2022/06/30 13:02:54;;;;;;;;;;;;;;;27.77;45.50;96324.63;4217836;28;5106;-68
2022/06/30 13:04:57;;;;;;;;;;;;;;;27.75;45.25;96316.81;4219621;28;5735;-69
2022/06/30 13:07:02;;;;;;;;;;;;;;;27.78;45.16;96327.03;4217736;28;5766;-69
2022/06/30 13:09:10;;;;;;;;;;;;;;;27.81;45.20;96315.53;4214768;28;5851;-69
2022/06/30 13:11:15;;;;;;;;;;;;;;;27.81;45.18;96329.13;4217382;28;5672;-68
2022/06/30 13:13:18;;;;;;;;;;;;;;;27.79;45.05;96314.25;4221285;28;5675;-87
2022/06/30 13:15:21;;;;;;;;;;;;;;;27.78;45.02;96310.75;4218987;28;5783;-77
2022/06/30 13:17:26;;;;;;;;;;;;;;;27.77;44.96;96320.00;4220361;28;6454;-87
2022/06/30 13:19:30;;;;;;;;;;;;;;;27.77;45.03;96321.94;4218929;28;5748;-77
2022/06/30 13:21:33;;;;;;;;;;;;;;;27.74;44.90;96320.63;4218153;28;6351;-78
2022/06/30 13:23:38;;;;;;;;;;;;;;;27.72;45.09;96303.84;4215549;28;5784;-74
2022/06/30 13:25:41;;;;;;;;;;;;;;;27.73;45.09;96308.16;4216915;28;6466;-73
2022/06/30 13:27:44;;;;;;;;;;;;;;;27.75;45.18;96302.44;4204597;28;5915;-71
2022/06/30 13:29:47;;;;;;;;;;;;;;;27.77;45.15;96294.75;4219259;28;5739;-73
2022/06/30 13:31:50;;;;;;;;;;;;;;;27.77;45.04;96290.13;4216704;28;5763;-70
2022/06/30 13:33:54;;;;;;;;;;;;;;;27.78;45.16;96288.22;4218468;28;5672;-69
2022/06/30 13:35:57;;;;;;;;;;;;;;;27.79;45.07;96287.91;4217276;28;5786;-69
2022/06/30 13:38:00;;;;;;;;;;;;;;;27.77;45.16;96286.63;4211990;28;5700;-70
2022/06/30 13:40:05;;;;;;;;;;;;;;;27.73;45.11;96280.19;4216445;28;5708;-69
2022/06/30 13:42:09;;;;;;;;;;;;;;;27.74;45.22;96279.88;4212425;28;5659;-68
2022/06/30 13:44:12;;;;;;;;;;;;;;;27.77;45.25;96279.28;4218943;28;5815;-72
2022/06/30 13:46:15;;;;;;;;;;;;;;;27.82;45.13;96270.97;4213886;28;5764;-68
2022/06/30 13:48:19;;;;;;;;;;;;;;;27.81;45.22;96263.94;4203545;28;5701;-74
2022/06/30 13:50:22;;;;;;;;;;;;;;;27.82;45.19;96265.53;4210926;28;5093;-74
2022/06/30 13:52:25;;;;;;;;;;;;;;;27.82;45.39;96262.81;4217231;28;5841;-69
2022/06/30 13:54:28;;;;;;;;;;;;;;;27.80;45.25;96265.06;4215472;28;5723;-69
2022/06/30 13:56:32;;;;;;;;;;;;;;;27.81;45.37;96266.66;4207037;28;5775;-71
2022/06/30 13:58:35;;;;;;;;;;;;;;;27.82;45.23;96256.59;4212104;28;5794;-71
2022/06/30 14:00:39;;;;;;;;;;;;;;;27.83;45.45;96253.53;4215433;28;5803;-71
2022/06/30 14:02:42;;;;;;;;;;;;;;;27.83;45.35;96258.97;4208438;28;5775;-69
2022/06/30 14:04:45;;;;;;;;;;;;;;;27.86;45.31;96246.69;4214816;28;5843;-73
2022/06/30 14:06:48;;;;;;;;;;;;;;;27.87;45.29;96255.66;4213792;28;6273;-73
2022/06/30 14:08:51;;;;;;;;;;;;;;;27.88;45.28;96246.38;4215586;28;5775;-71
2022/06/30 14:10:54;;;;;;;;;;;;;;;27.89;45.26;96245.25;4202883;28;5803;-74
2022/06/30 14:13:01;;;;;;;;;;;;;;;27.87;45.40;96247.50;4219537;28;6419;-73
2022/06/30 14:15:04;;;;;;;;;;;;;;;27.85;45.42;96247.78;4205601;28;5767;-74
2022/06/30 14:17:10;;;;;;;;;;;;;;;27.88;45.36;96249.91;4214242;28;5979;-72
2022/06/30 14:19:14;;;;;;;;;;;;;;;27.90;45.35;96239.50;4214714;28;7722;-74
2022/06/30 14:21:17;;;;;;;;;;;;;;;27.91;45.28;96240.31;4213662;28;5835;-73
2022/06/30 14:23:20;;;;;;;;;;;;;;;27.92;45.29;96228.31;4208041;27;5822;-71
2022/06/30 14:25:23;;;;;;;;;;;;;;;27.91;45.30;96230.25;4202628;28;6486;-70
2022/06/30 14:27:26;;;;;;;;;;;;;;;27.90;45.43;96225.94;4198462;28;5796;-71
2022/06/30 14:29:30;;;;;;;;;;;;;;;27.92;45.35;96223.69;4210442;28;5800;-71
2022/06/30 14:31:33;;;;;;;;;;;;;;;27.93;45.40;96227.19;4208735;28;5138;-66
2022/06/30 14:33:36;;;;;;;;;;;;;;;27.94;45.38;96229.59;4214191;28;5808;-69
2022/06/30 14:35:39;;;;;;;;;;;;;;;27.95;45.43;96230.41;4214509;28;5793;-71
2022/06/30 14:37:43;;;;;;;;;;;;;;;27.93;45.42;96222.56;4212540;28;6627;-67
2022/06/30 14:39:46;;;;;;;;;;;;;;;27.94;45.40;96232.31;4210371;28;5791;-67
2022/06/30 14:44:11;;;;;;;;;;;;;;;27.98;45.39;96225.16;4213758;28;5906;-68
2022/06/30 14:46:16;;;;;;;;;;;;;;;28.02;45.61;96234.25;4211626;28;5784;-68
2022/06/30 14:48:19;;;;;;;;;;;;;;;28.06;45.49;96227.06;4212932;28;5810;-68
2022/06/30 14:50:22;;;;;;;;;;;;;;;28.10;45.54;96224.50;4203664;28;5787;-70
2022/06/30 14:52:26;;;;;;;;;;;;;;;28.10;45.47;96229.94;4213450;28;5680;-70
2022/06/30 14:54:29;;;;;;;;;;;;;;;28.13;45.34;96227.38;4214402;28;5863;-70
2022/06/30 14:56:32;;;;;;;;;;;;;;;28.12;45.45;96228.50;4211102;28;5807;-68
2022/06/30 14:58:34;;;;;;;;;;;;;;;28.13;45.48;96218.44;4215486;28;5085;-68
2022/06/30 15:00:38;;;;;;;;;;;;;;;28.13;45.37;96234.75;4216654;28;5786;-82